sensor_id;sensor_type;location;lat;lon;timestamp;P1;durP1;ratioP1;P2;durP2;ratioP2
33206;SDS011;19565;46.602;11.534;2023-07-16T00:00:26;5.85;;;3.97;;
33206;SDS011;19565;46.602;11.534;2023-07-16T00:02:54;3.80;;;3.20;;
33206;SDS011;19565;46.602;11.534;2023-07-16T00:05:23;4.00;;;2.45;;
33206;SDS011;19565;46.602;11.534;2023-07-16T00:07:51;3.58;;;2.95;;
33206;SDS011;19565;46.602;11.534;2023-07-16T00:10:19;5.20;;;3.53;;
33206;SDS011;19565;46.602;11.534;2023-07-16T00:12:47;3.70;;;3.33;;
33206;SDS011;19565;46.602;11.534;2023-07-16T00:15:15;4.93;;;3.58;;
33206;SDS011;19565;46.602;11.534;2023-07-16T00:17:43;2.58;;;2.22;;
33206;SDS011;19565;46.602;11.534;2023-07-16T00:20:11;5.45;;;4.00;;
33206;SDS011;19565;46.602;11.534;2023-07-16T00:22:41;5.28;;;3.15;;
33206;SDS011;19565;46.602;11.534;2023-07-16T00:25:09;4.93;;;3.35;;
33206;SDS011;19565;46.602;11.534;2023-07-16T00:27:37;3.25;;;2.40;;
33206;SDS011;19565;46.602;11.534;2023-07-16T00:30:06;5.57;;;3.58;;
33206;SDS011;19565;46.602;11.534;2023-07-16T00:32:34;7.45;;;4.22;;
33206;SDS011;19565;46.602;11.534;2023-07-16T00:35:03;3.05;;;2.80;;
33206;SDS011;19565;46.602;11.534;2023-07-16T00:37:33;3.20;;;2.75;;
33206;SDS011;19565;46.602;11.534;2023-07-16T00:40:03;6.20;;;3.80;;
33206;SDS011;19565;46.602;11.534;2023-07-16T00:42:32;10.50;;;3.75;;
33206;SDS011;19565;46.602;11.534;2023-07-16T00:45:00;4.03;;;2.72;;
33206;SDS011;19565;46.602;11.534;2023-07-16T00:47:29;5.63;;;3.53;;
33206;SDS011;19565;46.602;11.534;2023-07-16T00:49:57;3.85;;;2.20;;
33206;SDS011;19565;46.602;11.534;2023-07-16T00:52:25;3.65;;;3.33;;
33206;SDS011;19565;46.602;11.534;2023-07-16T00:54:54;7.30;;;3.47;;
33206;SDS011;19565;46.602;11.534;2023-07-16T00:57:24;6.80;;;4.55;;
33206;SDS011;19565;46.602;11.534;2023-07-16T00:59:52;4.85;;;3.40;;
33206;SDS011;19565;46.602;11.534;2023-07-16T01:02:20;5.78;;;3.63;;
33206;SDS011;19565;46.602;11.534;2023-07-16T01:04:49;4.68;;;3.70;;
33206;SDS011;19565;46.602;11.534;2023-07-16T01:07:17;5.60;;;4.18;;
33206;SDS011;19565;46.602;11.534;2023-07-16T01:09:48;3.67;;;2.75;;
33206;SDS011;19565;46.602;11.534;2023-07-16T01:12:17;6.60;;;3.88;;
33206;SDS011;19565;46.602;11.534;2023-07-16T01:14:51;3.03;;;2.28;;
33206;SDS011;19565;46.602;11.534;2023-07-16T01:17:19;6.60;;;4.13;;
33206;SDS011;19565;46.602;11.534;2023-07-16T01:19:47;3.83;;;3.42;;
33206;SDS011;19565;46.602;11.534;2023-07-16T01:22:20;4.35;;;2.35;;
33206;SDS011;19565;46.602;11.534;2023-07-16T01:28:05;3.20;;;2.72;;
33206;SDS011;19565;46.602;11.534;2023-07-16T01:30:42;3.50;;;3.08;;
33206;SDS011;19565;46.602;11.534;2023-07-16T01:33:12;4.45;;;2.85;;
33206;SDS011;19565;46.602;11.534;2023-07-16T01:35:42;4.43;;;3.17;;
33206;SDS011;19565;46.602;11.534;2023-07-16T01:38:11;3.58;;;2.55;;
33206;SDS011;19565;46.602;11.534;2023-07-16T01:40:41;5.40;;;3.20;;
33206;SDS011;19565;46.602;11.534;2023-07-16T01:43:09;6.30;;;4.40;;
33206;SDS011;19565;46.602;11.534;2023-07-16T01:45:37;4.55;;;2.95;;
33206;SDS011;19565;46.602;11.534;2023-07-16T01:48:09;5.53;;;3.50;;
33206;SDS011;19565;46.602;11.534;2023-07-16T01:50:43;3.50;;;2.58;;
33206;SDS011;19565;46.602;11.534;2023-07-16T01:53:11;4.22;;;2.65;;
33206;SDS011;19565;46.602;11.534;2023-07-16T01:55:39;4.28;;;3.05;;
33206;SDS011;19565;46.602;11.534;2023-07-16T01:58:07;2.40;;;2.13;;
33206;SDS011;19565;46.602;11.534;2023-07-16T02:00:36;6.60;;;3.55;;
33206;SDS011;19565;46.602;11.534;2023-07-16T02:03:04;7.75;;;3.15;;
33206;SDS011;19565;46.602;11.534;2023-07-16T02:05:33;4.85;;;2.95;;
33206;SDS011;19565;46.602;11.534;2023-07-16T02:08:02;4.22;;;3.10;;
33206;SDS011;19565;46.602;11.534;2023-07-16T02:10:30;4.47;;;2.88;;
33206;SDS011;19565;46.602;11.534;2023-07-16T02:12:58;5.03;;;4.00;;
33206;SDS011;19565;46.602;11.534;2023-07-16T02:15:26;7.03;;;3.45;;
33206;SDS011;19565;46.602;11.534;2023-07-16T02:17:54;5.80;;;3.65;;
33206;SDS011;19565;46.602;11.534;2023-07-16T02:20:22;4.72;;;3.30;;
33206;SDS011;19565;46.602;11.534;2023-07-16T02:22:52;5.07;;;3.75;;
33206;SDS011;19565;46.602;11.534;2023-07-16T02:25:20;6.90;;;3.45;;
33206;SDS011;19565;46.602;11.534;2023-07-16T02:27:48;6.68;;;4.03;;
33206;SDS011;19565;46.602;11.534;2023-07-16T02:30:16;8.63;;;4.70;;
33206;SDS011;19565;46.602;11.534;2023-07-16T02:32:44;3.47;;;2.50;;
33206;SDS011;19565;46.602;11.534;2023-07-16T02:35:12;5.40;;;3.45;;
33206;SDS011;19565;46.602;11.534;2023-07-16T02:37:40;5.38;;;2.97;;
33206;SDS011;19565;46.602;11.534;2023-07-16T02:40:10;3.08;;;2.65;;
33206;SDS011;19565;46.602;11.534;2023-07-16T02:42:38;4.35;;;3.08;;
33206;SDS011;19565;46.602;11.534;2023-07-16T02:45:06;4.57;;;2.97;;
33206;SDS011;19565;46.602;11.534;2023-07-16T02:47:35;6.25;;;3.67;;
33206;SDS011;19565;46.602;11.534;2023-07-16T02:50:03;3.95;;;3.10;;
33206;SDS011;19565;46.602;11.534;2023-07-16T02:52:32;4.55;;;2.28;;
33206;SDS011;19565;46.602;11.534;2023-07-16T02:55:00;14.05;;;3.80;;
33206;SDS011;19565;46.602;11.534;2023-07-16T02:57:29;2.83;;;1.98;;
33206;SDS011;19565;46.602;11.534;2023-07-16T02:59:58;5.85;;;3.78;;
33206;SDS011;19565;46.602;11.534;2023-07-16T03:02:26;8.65;;;3.80;;
33206;SDS011;19565;46.602;11.534;2023-07-16T03:04:54;5.70;;;4.45;;
33206;SDS011;19565;46.602;11.534;2023-07-16T03:07:22;3.83;;;3.28;;
33206;SDS011;19565;46.602;11.534;2023-07-16T03:09:50;6.18;;;3.25;;
33206;SDS011;19565;46.602;11.534;2023-07-16T03:12:20;5.07;;;3.13;;
33206;SDS011;19565;46.602;11.534;2023-07-16T03:14:49;5.13;;;2.95;;
33206;SDS011;19565;46.602;11.534;2023-07-16T03:17:20;4.05;;;2.88;;
33206;SDS011;19565;46.602;11.534;2023-07-16T03:19:48;4.25;;;3.17;;
33206;SDS011;19565;46.602;11.534;2023-07-16T03:22:16;3.72;;;2.88;;
33206;SDS011;19565;46.602;11.534;2023-07-16T03:24:44;5.65;;;4.13;;
33206;SDS011;19565;46.602;11.534;2023-07-16T03:27:12;3.55;;;3.20;;
33206;SDS011;19565;46.602;11.534;2023-07-16T03:29:44;5.20;;;4.30;;
33206;SDS011;19565;46.602;11.534;2023-07-16T03:32:14;4.28;;;3.53;;
33206;SDS011;19565;46.602;11.534;2023-07-16T03:34:42;9.98;;;3.97;;
33206;SDS011;19565;46.602;11.534;2023-07-16T03:37:10;6.20;;;3.72;;
33206;SDS011;19565;46.602;11.534;2023-07-16T03:39:38;7.30;;;3.50;;
33206;SDS011;19565;46.602;11.534;2023-07-16T03:42:06;5.32;;;3.28;;
33206;SDS011;19565;46.602;11.534;2023-07-16T03:44:34;4.93;;;3.00;;
33206;SDS011;19565;46.602;11.534;2023-07-16T03:47:02;3.47;;;2.67;;
33206;SDS011;19565;46.602;11.534;2023-07-16T03:49:32;4.82;;;3.17;;
33206;SDS011;19565;46.602;11.534;2023-07-16T03:52:00;8.07;;;4.25;;
33206;SDS011;19565;46.602;11.534;2023-07-16T03:54:28;3.33;;;3.00;;
33206;SDS011;19565;46.602;11.534;2023-07-16T03:56:56;2.80;;;2.40;;
33206;SDS011;19565;46.602;11.534;2023-07-16T03:59:24;3.65;;;2.70;;
33206;SDS011;19565;46.602;11.534;2023-07-16T04:01:52;5.50;;;2.65;;
33206;SDS011;19565;46.602;11.534;2023-07-16T04:04:20;4.85;;;3.00;;
33206;SDS011;19565;46.602;11.534;2023-07-16T04:06:50;5.18;;;3.88;;
33206;SDS011;19565;46.602;11.534;2023-07-16T04:09:18;2.65;;;2.25;;
33206;SDS011;19565;46.602;11.534;2023-07-16T04:11:46;6.35;;;3.97;;
33206;SDS011;19565;46.602;11.534;2023-07-16T04:14:14;3.92;;;2.90;;
33206;SDS011;19565;46.602;11.534;2023-07-16T04:16:42;5.30;;;3.08;;
33206;SDS011;19565;46.602;11.534;2023-07-16T04:19:10;7.90;;;3.40;;
33206;SDS011;19565;46.602;11.534;2023-07-16T04:21:38;4.82;;;3.28;;
33206;SDS011;19565;46.602;11.534;2023-07-16T04:24:07;4.25;;;2.92;;
33206;SDS011;19565;46.602;11.534;2023-07-16T04:26:35;5.03;;;3.00;;
33206;SDS011;19565;46.602;11.534;2023-07-16T04:29:04;3.33;;;3.03;;
33206;SDS011;19565;46.602;11.534;2023-07-16T04:31:32;4.90;;;4.40;;
33206;SDS011;19565;46.602;11.534;2023-07-16T04:34:00;4.82;;;3.65;;
33206;SDS011;19565;46.602;11.534;2023-07-16T04:36:28;4.60;;;3.70;;
33206;SDS011;19565;46.602;11.534;2023-07-16T04:38:56;6.75;;;3.28;;
33206;SDS011;19565;46.602;11.534;2023-07-16T04:41:26;4.82;;;3.50;;
33206;SDS011;19565;46.602;11.534;2023-07-16T04:43:54;3.92;;;2.75;;
33206;SDS011;19565;46.602;11.534;2023-07-16T04:46:22;4.60;;;3.40;;
33206;SDS011;19565;46.602;11.534;2023-07-16T04:48:50;5.05;;;4.18;;
33206;SDS011;19565;46.602;11.534;2023-07-16T04:51:19;7.97;;;3.15;;
33206;SDS011;19565;46.602;11.534;2023-07-16T04:53:47;3.55;;;3.03;;
33206;SDS011;19565;46.602;11.534;2023-07-16T04:56:16;4.72;;;3.40;;
33206;SDS011;19565;46.602;11.534;2023-07-16T04:58:46;6.05;;;4.32;;
33206;SDS011;19565;46.602;11.534;2023-07-16T05:01:14;2.55;;;2.25;;
33206;SDS011;19565;46.602;11.534;2023-07-16T05:03:42;5.57;;;3.35;;
33206;SDS011;19565;46.602;11.534;2023-07-16T05:06:10;5.15;;;3.22;;
33206;SDS011;19565;46.602;11.534;2023-07-16T05:08:38;6.03;;;3.35;;
33206;SDS011;19565;46.602;11.534;2023-07-16T05:11:06;5.90;;;4.10;;
33206;SDS011;19565;46.602;11.534;2023-07-16T05:13:34;5.82;;;3.70;;
33206;SDS011;19565;46.602;11.534;2023-07-16T05:16:04;4.82;;;3.58;;
33206;SDS011;19565;46.602;11.534;2023-07-16T05:18:32;4.35;;;3.20;;
33206;SDS011;19565;46.602;11.534;2023-07-16T05:21:00;7.57;;;4.60;;
33206;SDS011;19565;46.602;11.534;2023-07-16T05:23:30;4.28;;;3.08;;
33206;SDS011;19565;46.602;11.534;2023-07-16T05:25:58;4.20;;;2.40;;
33206;SDS011;19565;46.602;11.534;2023-07-16T05:28:26;2.80;;;2.08;;
33206;SDS011;19565;46.602;11.534;2023-07-16T05:30:57;5.00;;;2.92;;
33206;SDS011;19565;46.602;11.534;2023-07-16T05:33:27;5.85;;;3.80;;
33206;SDS011;19565;46.602;11.534;2023-07-16T05:35:56;4.95;;;3.10;;
33206;SDS011;19565;46.602;11.534;2023-07-16T05:38:24;5.43;;;3.80;;
33206;SDS011;19565;46.602;11.534;2023-07-16T05:40:52;4.47;;;3.47;;
33206;SDS011;19565;46.602;11.534;2023-07-16T05:43:20;5.13;;;3.40;;
33206;SDS011;19565;46.602;11.534;2023-07-16T05:45:48;20.45;;;4.80;;
33206;SDS011;19565;46.602;11.534;2023-07-16T05:48:16;3.90;;;3.28;;
33206;SDS011;19565;46.602;11.534;2023-07-16T05:50:45;5.40;;;3.33;;
33206;SDS011;19565;46.602;11.534;2023-07-16T05:53:13;5.50;;;3.42;;
33206;SDS011;19565;46.602;11.534;2023-07-16T05:55:42;3.78;;;2.83;;
33206;SDS011;19565;46.602;11.534;2023-07-16T05:58:10;3.95;;;3.25;;
33206;SDS011;19565;46.602;11.534;2023-07-16T06:00:38;5.07;;;3.65;;
33206;SDS011;19565;46.602;11.534;2023-07-16T06:03:06;12.98;;;4.97;;
33206;SDS011;19565;46.602;11.534;2023-07-16T06:05:34;6.32;;;5.72;;
33206;SDS011;19565;46.602;11.534;2023-07-16T06:08:04;12.70;;;6.80;;
33206;SDS011;19565;46.602;11.534;2023-07-16T06:10:33;5.82;;;5.28;;
33206;SDS011;19565;46.602;11.534;2023-07-16T06:13:01;6.25;;;5.65;;
33206;SDS011;19565;46.602;11.534;2023-07-16T06:15:29;14.98;;;7.47;;
33206;SDS011;19565;46.602;11.534;2023-07-16T06:17:57;7.68;;;6.97;;
33206;SDS011;19565;46.602;11.534;2023-07-16T06:20:25;9.70;;;8.70;;
33206;SDS011;19565;46.602;11.534;2023-07-16T06:22:55;8.15;;;7.50;;
33206;SDS011;19565;46.602;11.534;2023-07-16T06:25:24;10.07;;;9.25;;
33206;SDS011;19565;46.602;11.534;2023-07-16T06:27:52;9.50;;;8.63;;
33206;SDS011;19565;46.602;11.534;2023-07-16T06:30:20;10.20;;;9.43;;
33206;SDS011;19565;46.602;11.534;2023-07-16T06:32:48;12.23;;;8.43;;
33206;SDS011;19565;46.602;11.534;2023-07-16T06:35:16;11.45;;;10.55;;
33206;SDS011;19565;46.602;11.534;2023-07-16T06:37:45;13.03;;;11.83;;
33206;SDS011;19565;46.602;11.534;2023-07-16T06:40:13;12.13;;;11.18;;
33206;SDS011;19565;46.602;11.534;2023-07-16T06:42:43;14.63;;;13.13;;
33206;SDS011;19565;46.602;11.534;2023-07-16T06:45:11;13.13;;;12.23;;
33206;SDS011;19565;46.602;11.534;2023-07-16T06:47:39;13.50;;;12.52;;
33206;SDS011;19565;46.602;11.534;2023-07-16T06:50:07;14.32;;;13.25;;
33206;SDS011;19565;46.602;11.534;2023-07-16T06:52:36;13.48;;;12.68;;
33206;SDS011;19565;46.602;11.534;2023-07-16T06:55:04;15.43;;;14.32;;
33206;SDS011;19565;46.602;11.534;2023-07-16T06:57:33;15.35;;;14.50;;
33206;SDS011;19565;46.602;11.534;2023-07-16T07:00:02;16.33;;;15.32;;
33206;SDS011;19565;46.602;11.534;2023-07-16T07:02:31;18.85;;;17.67;;
33206;SDS011;19565;46.602;11.534;2023-07-16T07:04:59;18.48;;;17.27;;
33206;SDS011;19565;46.602;11.534;2023-07-16T07:07:27;19.10;;;17.88;;
33206;SDS011;19565;46.602;11.534;2023-07-16T07:09:55;18.98;;;17.77;;
33206;SDS011;19565;46.602;11.534;2023-07-16T07:12:23;20.48;;;19.35;;
33206;SDS011;19565;46.602;11.534;2023-07-16T07:14:51;19.13;;;18.05;;
33206;SDS011;19565;46.602;11.534;2023-07-16T07:17:20;18.38;;;17.23;;
33206;SDS011;19565;46.602;11.534;2023-07-16T07:19:48;19.75;;;18.35;;
33206;SDS011;19565;46.602;11.534;2023-07-16T07:22:16;21.20;;;19.45;;
33206;SDS011;19565;46.602;11.534;2023-07-16T07:24:48;20.20;;;18.95;;
33206;SDS011;19565;46.602;11.534;2023-07-16T07:27:16;19.40;;;17.92;;
33206;SDS011;19565;46.602;11.534;2023-07-16T07:29:44;21.70;;;20.33;;
33206;SDS011;19565;46.602;11.534;2023-07-16T07:32:18;22.27;;;21.05;;
33206;SDS011;19565;46.602;11.534;2023-07-16T07:34:48;22.80;;;21.33;;
33206;SDS011;19565;46.602;11.534;2023-07-16T07:37:16;24.50;;;23.15;;
33206;SDS011;19565;46.602;11.534;2023-07-16T07:39:44;26.08;;;24.48;;
33206;SDS011;19565;46.602;11.534;2023-07-16T07:42:14;28.48;;;26.77;;
33206;SDS011;19565;46.602;11.534;2023-07-16T07:44:42;32.17;;;30.60;;
33206;SDS011;19565;46.602;11.534;2023-07-16T07:47:10;36.58;;;34.72;;
33206;SDS011;19565;46.602;11.534;2023-07-16T07:49:39;45.45;;;43.42;;
33206;SDS011;19565;46.602;11.534;2023-07-16T07:52:07;53.03;;;50.63;;
33206;SDS011;19565;46.602;11.534;2023-07-16T07:54:35;59.40;;;56.58;;
33206;SDS011;19565;46.602;11.534;2023-07-16T07:57:04;61.78;;;59.08;;
33206;SDS011;19565;46.602;11.534;2023-07-16T07:59:32;64.95;;;62.05;;
33206;SDS011;19565;46.602;11.534;2023-07-16T08:02:00;65.45;;;62.35;;
33206;SDS011;19565;46.602;11.534;2023-07-16T08:04:29;65.00;;;62.10;;
33206;SDS011;19565;46.602;11.534;2023-07-16T08:07:00;67.88;;;64.78;;
33206;SDS011;19565;46.602;11.534;2023-07-16T08:09:30;64.00;;;61.03;;
33206;SDS011;19565;46.602;11.534;2023-07-16T08:11:58;66.90;;;63.90;;
33206;SDS011;19565;46.602;11.534;2023-07-16T08:14:26;66.90;;;63.88;;
33206;SDS011;19565;46.602;11.534;2023-07-16T08:16:55;63.95;;;61.03;;
33206;SDS011;19565;46.602;11.534;2023-07-16T08:19:23;61.58;;;58.70;;
33206;SDS011;19565;46.602;11.534;2023-07-16T08:21:51;62.28;;;59.28;;
33206;SDS011;19565;46.602;11.534;2023-07-16T08:24:20;62.47;;;59.58;;
33206;SDS011;19565;46.602;11.534;2023-07-16T08:26:48;61.08;;;58.00;;
33206;SDS011;19565;46.602;11.534;2023-07-16T08:29:16;61.72;;;58.80;;
33206;SDS011;19565;46.602;11.534;2023-07-16T08:31:44;60.13;;;57.45;;
33206;SDS011;19565;46.602;11.534;2023-07-16T08:34:12;60.17;;;56.90;;
33206;SDS011;19565;46.602;11.534;2023-07-16T08:36:40;61.03;;;58.08;;
33206;SDS011;19565;46.602;11.534;2023-07-16T08:39:10;61.13;;;58.35;;
33206;SDS011;19565;46.602;11.534;2023-07-16T08:41:39;61.20;;;58.45;;
33206;SDS011;19565;46.602;11.534;2023-07-16T08:44:08;59.72;;;57.03;;
33206;SDS011;19565;46.602;11.534;2023-07-16T08:46:36;61.22;;;58.38;;
33206;SDS011;19565;46.602;11.534;2023-07-16T08:49:05;61.13;;;58.33;;
33206;SDS011;19565;46.602;11.534;2023-07-16T08:51:34;59.92;;;57.13;;
33206;SDS011;19565;46.602;11.534;2023-07-16T08:54:05;61.63;;;58.22;;
33206;SDS011;19565;46.602;11.534;2023-07-16T08:56:33;59.65;;;56.92;;
33206;SDS011;19565;46.602;11.534;2023-07-16T08:59:03;61.65;;;58.78;;
33206;SDS011;19565;46.602;11.534;2023-07-16T09:01:31;62.40;;;59.25;;
33206;SDS011;19565;46.602;11.534;2023-07-16T09:03:59;64.32;;;60.88;;
33206;SDS011;19565;46.602;11.534;2023-07-16T09:06:27;61.83;;;59.05;;
33206;SDS011;19565;46.602;11.534;2023-07-16T09:08:55;61.63;;;58.83;;
33206;SDS011;19565;46.602;11.534;2023-07-16T09:11:23;64.80;;;61.80;;
33206;SDS011;19565;46.602;11.534;2023-07-16T09:13:51;65.43;;;62.05;;
33206;SDS011;19565;46.602;11.534;2023-07-16T09:16:21;65.50;;;62.40;;
33206;SDS011;19565;46.602;11.534;2023-07-16T09:18:49;66.80;;;63.65;;
33206;SDS011;19565;46.602;11.534;2023-07-16T09:21:17;63.15;;;60.22;;
33206;SDS011;19565;46.602;11.534;2023-07-16T09:23:45;66.63;;;63.33;;
33206;SDS011;19565;46.602;11.534;2023-07-16T09:26:13;66.05;;;63.05;;
33206;SDS011;19565;46.602;11.534;2023-07-16T09:28:41;64.90;;;61.58;;
33206;SDS011;19565;46.602;11.534;2023-07-16T09:31:09;66.07;;;62.35;;
33206;SDS011;19565;46.602;11.534;2023-07-16T09:33:40;66.70;;;62.92;;
33206;SDS011;19565;46.602;11.534;2023-07-16T09:36:08;66.07;;;63.08;;
33206;SDS011;19565;46.602;11.534;2023-07-16T09:38:37;67.03;;;63.00;;
33206;SDS011;19565;46.602;11.534;2023-07-16T09:41:05;65.05;;;62.15;;
33206;SDS011;19565;46.602;11.534;2023-07-16T09:43:33;65.15;;;62.25;;
33206;SDS011;19565;46.602;11.534;2023-07-16T09:46:03;65.30;;;62.40;;
33206;SDS011;19565;46.602;11.534;2023-07-16T09:48:31;66.22;;;63.13;;
33206;SDS011;19565;46.602;11.534;2023-07-16T09:51:00;65.13;;;62.22;;
33206;SDS011;19565;46.602;11.534;2023-07-16T09:53:29;65.25;;;62.20;;
33206;SDS011;19565;46.602;11.534;2023-07-16T09:56:00;66.53;;;63.42;;
33206;SDS011;19565;46.602;11.534;2023-07-16T09:58:31;64.85;;;61.85;;
33206;SDS011;19565;46.602;11.534;2023-07-16T10:00:59;72.18;;;67.97;;
33206;SDS011;19565;46.602;11.534;2023-07-16T10:03:30;63.33;;;60.33;;
33206;SDS011;19565;46.602;11.534;2023-07-16T10:06:06;63.20;;;60.20;;
33206;SDS011;19565;46.602;11.534;2023-07-16T10:08:38;62.92;;;60.03;;
33206;SDS011;19565;46.602;11.534;2023-07-16T10:11:15;63.85;;;61.05;;
33206;SDS011;19565;46.602;11.534;2023-07-16T10:13:48;61.67;;;58.70;;
33206;SDS011;19565;46.602;11.534;2023-07-16T10:16:20;65.20;;;62.13;;
33206;SDS011;19565;46.602;11.534;2023-07-16T10:18:50;63.45;;;60.35;;
33206;SDS011;19565;46.602;11.534;2023-07-16T10:21:24;64.18;;;61.30;;
33206;SDS011;19565;46.602;11.534;2023-07-16T10:23:56;65.20;;;62.10;;
33206;SDS011;19565;46.602;11.534;2023-07-16T10:26:27;66.60;;;63.47;;
33206;SDS011;19565;46.602;11.534;2023-07-16T10:28:55;66.35;;;63.45;;
33206;SDS011;19565;46.602;11.534;2023-07-16T10:31:24;66.72;;;63.63;;
33206;SDS011;19565;46.602;11.534;2023-07-16T10:33:59;66.18;;;63.17;;
33206;SDS011;19565;46.602;11.534;2023-07-16T10:36:29;66.57;;;63.38;;
33206;SDS011;19565;46.602;11.534;2023-07-16T10:39:03;70.25;;;67.03;;
33206;SDS011;19565;46.602;11.534;2023-07-16T10:41:32;68.65;;;65.55;;
33206;SDS011;19565;46.602;11.534;2023-07-16T10:44:00;69.03;;;66.03;;
33206;SDS011;19565;46.602;11.534;2023-07-16T10:46:30;66.10;;;62.97;;
33206;SDS011;19565;46.602;11.534;2023-07-16T10:48:59;67.50;;;64.50;;
33206;SDS011;19565;46.602;11.534;2023-07-16T10:51:29;64.40;;;61.40;;
33206;SDS011;19565;46.602;11.534;2023-07-16T10:53:57;67.95;;;64.80;;
33206;SDS011;19565;46.602;11.534;2023-07-16T10:56:25;68.82;;;65.55;;
33206;SDS011;19565;46.602;11.534;2023-07-16T10:58:53;67.88;;;64.88;;
33206;SDS011;19565;46.602;11.534;2023-07-16T11:01:21;68.63;;;65.53;;
33206;SDS011;19565;46.602;11.534;2023-07-16T11:03:50;67.05;;;63.95;;
33206;SDS011;19565;46.602;11.534;2023-07-16T11:06:18;68.60;;;65.40;;
33206;SDS011;19565;46.602;11.534;2023-07-16T11:08:48;68.40;;;65.35;;
33206;SDS011;19565;46.602;11.534;2023-07-16T11:11:27;68.68;;;65.68;;
33206;SDS011;19565;46.602;11.534;2023-07-16T11:13:58;66.40;;;63.40;;
33206;SDS011;19565;46.602;11.534;2023-07-16T11:16:26;65.82;;;62.83;;
33206;SDS011;19565;46.602;11.534;2023-07-16T11:19:00;67.72;;;64.72;;
33206;SDS011;19565;46.602;11.534;2023-07-16T11:21:30;68.10;;;65.07;;
33206;SDS011;19565;46.602;11.534;2023-07-16T11:24:08;66.70;;;63.60;;
33206;SDS011;19565;46.602;11.534;2023-07-16T11:26:36;67.22;;;64.22;;
33206;SDS011;19565;46.602;11.534;2023-07-16T11:29:12;70.90;;;67.60;;
33206;SDS011;19565;46.602;11.534;2023-07-16T11:31:40;67.03;;;63.97;;
33206;SDS011;19565;46.602;11.534;2023-07-16T11:34:12;69.45;;;66.35;;
33206;SDS011;19565;46.602;11.534;2023-07-16T11:36:40;68.68;;;65.57;;
33206;SDS011;19565;46.602;11.534;2023-07-16T11:39:11;68.22;;;65.15;;
33206;SDS011;19565;46.602;11.534;2023-07-16T11:41:39;69.32;;;65.20;;
33206;SDS011;19565;46.602;11.534;2023-07-16T11:44:08;67.25;;;64.25;;
33206;SDS011;19565;46.602;11.534;2023-07-16T11:46:35;65.82;;;62.78;;
33206;SDS011;19565;46.602;11.534;2023-07-16T11:49:04;65.93;;;63.03;;
33206;SDS011;19565;46.602;11.534;2023-07-16T11:51:32;71.45;;;68.25;;
33206;SDS011;19565;46.602;11.534;2023-07-16T11:54:00;67.05;;;64.10;;
33206;SDS011;19565;46.602;11.534;2023-07-16T11:56:29;70.55;;;67.45;;
33206;SDS011;19565;46.602;11.534;2023-07-16T11:58:57;67.47;;;64.57;;
33206;SDS011;19565;46.602;11.534;2023-07-16T12:01:25;68.57;;;65.03;;
33206;SDS011;19565;46.602;11.534;2023-07-16T12:03:53;66.95;;;64.05;;
33206;SDS011;19565;46.602;11.534;2023-07-16T12:06:21;69.35;;;66.07;;
33206;SDS011;19565;46.602;11.534;2023-07-16T12:08:49;67.32;;;64.32;;
33206;SDS011;19565;46.602;11.534;2023-07-16T12:11:17;67.47;;;64.47;;
33206;SDS011;19565;46.602;11.534;2023-07-16T12:13:47;66.95;;;63.95;;
33206;SDS011;19565;46.602;11.534;2023-07-16T12:16:15;64.80;;;62.00;;
33206;SDS011;19565;46.602;11.534;2023-07-16T12:18:43;67.55;;;64.40;;
33206;SDS011;19565;46.602;11.534;2023-07-16T12:21:11;66.35;;;63.08;;
33206;SDS011;19565;46.602;11.534;2023-07-16T12:23:39;66.93;;;64.00;;
33206;SDS011;19565;46.602;11.534;2023-07-16T12:26:07;68.63;;;65.63;;
33206;SDS011;19565;46.602;11.534;2023-07-16T12:28:35;68.43;;;65.40;;
33206;SDS011;19565;46.602;11.534;2023-07-16T12:31:05;68.35;;;65.25;;
33206;SDS011;19565;46.602;11.534;2023-07-16T12:33:33;72.22;;;68.93;;
33206;SDS011;19565;46.602;11.534;2023-07-16T12:36:01;70.63;;;67.53;;
33206;SDS011;19565;46.602;11.534;2023-07-16T12:38:29;69.50;;;66.30;;
33206;SDS011;19565;46.602;11.534;2023-07-16T12:40:57;68.38;;;65.28;;
33206;SDS011;19565;46.602;11.534;2023-07-16T12:43:25;68.22;;;65.13;;
33206;SDS011;19565;46.602;11.534;2023-07-16T12:45:53;63.42;;;60.63;;
33206;SDS011;19565;46.602;11.534;2023-07-16T12:48:23;67.88;;;64.88;;
33206;SDS011;19565;46.602;11.534;2023-07-16T12:50:51;66.13;;;63.22;;
33206;SDS011;19565;46.602;11.534;2023-07-16T12:53:19;64.63;;;61.83;;
33206;SDS011;19565;46.602;11.534;2023-07-16T12:55:47;65.80;;;62.70;;
33206;SDS011;19565;46.602;11.534;2023-07-16T12:58:15;64.13;;;61.33;;
33206;SDS011;19565;46.602;11.534;2023-07-16T13:00:43;65.95;;;62.85;;
33206;SDS011;19565;46.602;11.534;2023-07-16T13:03:11;67.90;;;64.80;;
33206;SDS011;19565;46.602;11.534;2023-07-16T13:05:44;66.88;;;63.78;;
33206;SDS011;19565;46.602;11.534;2023-07-16T13:08:13;68.70;;;65.72;;
33206;SDS011;19565;46.602;11.534;2023-07-16T13:10:41;66.20;;;63.30;;
33206;SDS011;19565;46.602;11.534;2023-07-16T13:13:10;66.53;;;63.65;;
33206;SDS011;19565;46.602;11.534;2023-07-16T13:15:38;66.20;;;62.65;;
33206;SDS011;19565;46.602;11.534;2023-07-16T13:18:06;67.22;;;64.32;;
33206;SDS011;19565;46.602;11.534;2023-07-16T13:20:36;68.35;;;65.25;;
33206;SDS011;19565;46.602;11.534;2023-07-16T13:23:06;69.95;;;66.93;;
33206;SDS011;19565;46.602;11.534;2023-07-16T13:25:34;68.65;;;65.55;;
33206;SDS011;19565;46.602;11.534;2023-07-16T13:28:04;67.03;;;64.13;;
33206;SDS011;19565;46.602;11.534;2023-07-16T13:30:32;67.30;;;64.32;;
33206;SDS011;19565;46.602;11.534;2023-07-16T13:33:01;67.95;;;64.95;;
33206;SDS011;19565;46.602;11.534;2023-07-16T13:35:29;67.30;;;64.30;;
33206;SDS011;19565;46.602;11.534;2023-07-16T13:37:57;69.47;;;66.47;;
33206;SDS011;19565;46.602;11.534;2023-07-16T13:40:26;66.95;;;64.05;;
33206;SDS011;19565;46.602;11.534;2023-07-16T13:42:54;65.93;;;63.08;;
33206;SDS011;19565;46.602;11.534;2023-07-16T13:45:22;68.18;;;65.15;;
33206;SDS011;19565;46.602;11.534;2023-07-16T13:47:50;68.03;;;65.03;;
33206;SDS011;19565;46.602;11.534;2023-07-16T13:50:20;67.25;;;64.35;;
33206;SDS011;19565;46.602;11.534;2023-07-16T13:52:48;68.32;;;65.32;;
33206;SDS011;19565;46.602;11.534;2023-07-16T13:55:16;65.60;;;62.72;;
33206;SDS011;19565;46.602;11.534;2023-07-16T13:57:45;63.55;;;60.78;;
33206;SDS011;19565;46.602;11.534;2023-07-16T14:00:14;66.20;;;63.28;;
33206;SDS011;19565;46.602;11.534;2023-07-16T14:02:43;65.53;;;62.63;;
33206;SDS011;19565;46.602;11.534;2023-07-16T14:05:11;64.45;;;61.60;;
33206;SDS011;19565;46.602;11.534;2023-07-16T14:07:40;63.53;;;60.72;;
33206;SDS011;19565;46.602;11.534;2023-07-16T14:10:08;63.50;;;60.60;;
33206;SDS011;19565;46.602;11.534;2023-07-16T14:12:37;63.60;;;60.55;;
33206;SDS011;19565;46.602;11.534;2023-07-16T14:15:06;63.50;;;60.70;;
33206;SDS011;19565;46.602;11.534;2023-07-16T14:17:35;65.45;;;62.55;;
33206;SDS011;19565;46.602;11.534;2023-07-16T14:20:03;62.05;;;59.35;;
33206;SDS011;19565;46.602;11.534;2023-07-16T14:22:33;64.55;;;61.45;;
33206;SDS011;19565;46.602;11.534;2023-07-16T14:25:01;64.38;;;61.47;;
33206;SDS011;19565;46.602;11.534;2023-07-16T14:27:30;63.50;;;60.80;;
33206;SDS011;19565;46.602;11.534;2023-07-16T14:29:59;63.60;;;60.85;;
33206;SDS011;19565;46.602;11.534;2023-07-16T14:32:34;65.03;;;62.22;;